RYR496E LEZL-GCFV
Flight info
| Callsign | RYR496E |
|---|---|
| Flight time | 1h 50m |
| Altitude | 37000 |
| Route | CLANA N857 KORNO UN857 TERTO |
| Aircraft | B738/M-SDE2E3FGHIRWXY/LB1 |
Departure
| Time | 2026-04-29 00:39 |
|---|---|
| Airport | Seville Airport (LEZL) |
Arrival
| Time | 2026-04-29 02:29 |
|---|---|
| Airport | Fuerteventura Airport (GCFV) |
| Time | Latitude | Longitude | Altitude | Speed | Heading |
|---|---|---|---|---|---|
| 2026-04-29 00:16 | 37.42463 | -5.89693 | 93 ft | 0 kts | 98° |
| 2026-04-29 00:32 | 37.42460 | -5.89685 | 93 ft | 1 kts | 116° |
| 2026-04-29 00:32 | 37.42458 | -5.89684 | 93 ft | 0 kts | 136° |
| 2026-04-29 00:32 | 37.42456 | -5.89684 | 93 ft | 0 kts | 157° |
| 2026-04-29 00:32 | 37.42454 | -5.89685 | 93 ft | 0 kts | 178° |
| 2026-04-29 00:33 | 37.42452 | -5.89688 | 93 ft | 1 kts | 208° |
| 2026-04-29 00:33 | 37.42448 | -5.89696 | 95 ft | 3 kts | 237° |
| 2026-04-29 00:33 | 37.42420 | -5.89711 | 94 ft | 7 kts | 162° |
| 2026-04-29 00:33 | 37.42369 | -5.89655 | 94 ft | 12 kts | 135° |
| 2026-04-29 00:34 | 37.42302 | -5.89570 | 93 ft | 15 kts | 135° |
| 2026-04-29 00:34 | 37.42230 | -5.89479 | 94 ft | 14 kts | 135° |
| 2026-04-29 00:34 | 37.42164 | -5.89432 | 97 ft | 10 kts | 207° |
| 2026-04-29 00:34 | 37.42110 | -5.89488 | 97 ft | 10 kts | 199° |
| 2026-04-29 00:35 | 37.42053 | -5.89446 | 97 ft | 10 kts | 134° |
| 2026-04-29 00:35 | 37.42002 | -5.89381 | 98 ft | 10 kts | 134° |
| 2026-04-29 00:35 | 37.41983 | -5.89292 | 98 ft | 12 kts | 90° |
| 2026-04-29 00:35 | 37.41983 | -5.89175 | 99 ft | 15 kts | 90° |
| 2026-04-29 00:36 | 37.41983 | -5.89023 | 100 ft | 20 kts | 89° |
| 2026-04-29 00:36 | 37.41984 | -5.88836 | 101 ft | 22 kts | 90° |
| 2026-04-29 00:36 | 37.41985 | -5.88649 | 103 ft | 21 kts | 90° |
| 2026-04-29 00:36 | 37.41986 | -5.88466 | 104 ft | 21 kts | 90° |
| 2026-04-29 00:37 | 37.41986 | -5.88279 | 104 ft | 23 kts | 90° |
| 2026-04-29 00:37 | 37.41987 | -5.88062 | 105 ft | 26 kts | 90° |
| 2026-04-29 00:37 | 37.41988 | -5.87837 | 107 ft | 25 kts | 90° |
| 2026-04-29 00:37 | 37.41988 | -5.87628 | 108 ft | 23 kts | 90° |
| 2026-04-29 00:38 | 37.41958 | -5.87467 | 111 ft | 17 kts | 126° |
| 2026-04-29 00:38 | 37.41857 | -5.87425 | 115 ft | 14 kts | 178° |
| 2026-04-29 00:38 | 37.41800 | -5.87436 | 117 ft | 3 kts | 244° |
| 2026-04-29 00:38 | 37.41800 | -5.87486 | 116 ft | 17 kts | 270° |
| 2026-04-29 00:39 | 37.41798 | -5.87979 | 108 ft | 95 kts | 270° |
| 2026-04-29 00:39 | 37.41796 | -5.89100 | 113 ft | 158 kts | 268° |
| 2026-04-29 00:39 | 37.41802 | -5.90525 | 759 ft | 166 kts | 271° |
| 2026-04-29 00:39 | 37.42186 | -5.91974 | 1477 ft | 188 kts | 298° |
| 2026-04-29 00:40 | 37.43007 | -5.93359 | 2131 ft | 209 kts | 298° |
| 2026-04-29 00:40 | 37.43633 | -5.95073 | 2522 ft | 228 kts | 280° |
| 2026-04-29 00:40 | 37.43859 | -5.97138 | 2796 ft | 250 kts | 269° |
| 2026-04-29 00:40 | 37.43978 | -5.99385 | 3560 ft | 262 kts | 270° |
| 2026-04-29 00:41 | 37.44116 | -6.01667 | 4635 ft | 261 kts | 269° |
| 2026-04-29 00:41 | 37.43900 | -6.03907 | 5503 ft | 260 kts | 244° |
| 2026-04-29 00:41 | 37.42862 | -6.05746 | 6361 ft | 260 kts | 219° |
| 2026-04-29 00:41 | 37.41303 | -6.06883 | 7233 ft | 261 kts | 199° |
| 2026-04-29 00:42 | 37.39569 | -6.07599 | 8113 ft | 265 kts | 207° |
| 2026-04-29 00:42 | 37.37985 | -6.08813 | 8952 ft | 269 kts | 213° |
| 2026-04-29 00:42 | 37.36407 | -6.10089 | 9883 ft | 271 kts | 212° |
| 2026-04-29 00:42 | 37.34784 | -6.11373 | 10503 ft | 285 kts | 212° |
| 2026-04-29 00:43 | 37.33019 | -6.12743 | 10705 ft | 311 kts | 211° |
| 2026-04-29 00:43 | 37.31126 | -6.14186 | 11235 ft | 324 kts | 211° |
| 2026-04-29 00:43 | 37.29176 | -6.15656 | 12019 ft | 328 kts | 211° |
| 2026-04-29 00:43 | 37.27214 | -6.17122 | 12938 ft | 328 kts | 211° |
| 2026-04-29 00:44 | 37.25240 | -6.18588 | 13759 ft | 332 kts | 211° |
| 2026-04-29 00:44 | 37.23239 | -6.20068 | 14469 ft | 336 kts | 211° |
| 2026-04-29 00:44 | 37.21209 | -6.21563 | 15154 ft | 341 kts | 211° |
| 2026-04-29 00:44 | 37.19147 | -6.23080 | 15842 ft | 345 kts | 211° |
| 2026-04-29 00:45 | 37.17058 | -6.24616 | 16515 ft | 350 kts | 211° |
| 2026-04-29 00:45 | 37.14942 | -6.26170 | 17203 ft | 355 kts | 211° |
| 2026-04-29 00:45 | 37.12801 | -6.27741 | 17886 ft | 359 kts | 211° |
| 2026-04-29 00:45 | 37.10631 | -6.29329 | 18462 ft | 364 kts | 211° |
| 2026-04-29 00:46 | 37.08435 | -6.30937 | 19067 ft | 367 kts | 211° |
| 2026-04-29 00:46 | 37.06225 | -6.32555 | 19700 ft | 369 kts | 211° |
| 2026-04-29 00:46 | 37.04003 | -6.34181 | 20317 ft | 372 kts | 211° |
| 2026-04-29 00:46 | 37.01792 | -6.35796 | 20895 ft | 375 kts | 211° |
| 2026-04-29 00:47 | 36.99531 | -6.37448 | 21477 ft | 378 kts | 211° |
| 2026-04-29 00:47 | 36.97251 | -6.39112 | 22053 ft | 381 kts | 211° |
| 2026-04-29 00:47 | 36.94952 | -6.40788 | 22632 ft | 384 kts | 211° |
| 2026-04-29 00:47 | 36.92636 | -6.42475 | 23198 ft | 387 kts | 210° |
| 2026-04-29 00:48 | 36.90299 | -6.44176 | 23709 ft | 390 kts | 210° |
| 2026-04-29 00:48 | 36.87944 | -6.45888 | 24173 ft | 393 kts | 210° |
| 2026-04-29 00:48 | 36.85578 | -6.47609 | 24674 ft | 395 kts | 211° |
| 2026-04-29 00:48 | 36.83199 | -6.49338 | 25128 ft | 397 kts | 211° |
| 2026-04-29 00:49 | 36.80801 | -6.51080 | 25542 ft | 400 kts | 211° |
| 2026-04-29 00:49 | 36.78382 | -6.52836 | 25907 ft | 405 kts | 211° |
| 2026-04-29 00:49 | 36.75939 | -6.54608 | 26313 ft | 407 kts | 211° |
| 2026-04-29 00:49 | 36.73482 | -6.56388 | 26733 ft | 410 kts | 211° |
| 2026-04-29 00:50 | 36.71009 | -6.58178 | 27127 ft | 413 kts | 211° |
| 2026-04-29 00:50 | 36.68518 | -6.59981 | 27512 ft | 416 kts | 212° |
| 2026-04-29 00:50 | 36.66012 | -6.61792 | 27884 ft | 418 kts | 212° |
| 2026-04-29 00:50 | 36.63488 | -6.63615 | 28250 ft | 421 kts | 212° |
| 2026-04-29 00:51 | 36.60945 | -6.65451 | 28623 ft | 424 kts | 212° |
| 2026-04-29 00:51 | 36.58389 | -6.67295 | 28989 ft | 427 kts | 212° |
| 2026-04-29 00:51 | 36.55811 | -6.69152 | 29360 ft | 429 kts | 212° |
| 2026-04-29 00:51 | 36.53223 | -6.71018 | 29668 ft | 432 kts | 212° |
| 2026-04-29 00:52 | 36.50638 | -6.72943 | 29963 ft | 434 kts | 216° |
| 2026-04-29 00:52 | 36.48251 | -6.75218 | 30323 ft | 432 kts | 221° |
| 2026-04-29 00:52 | 36.45955 | -6.77608 | 30767 ft | 430 kts | 223° |
| 2026-04-29 00:52 | 36.43680 | -6.80005 | 31180 ft | 428 kts | 223° |
| 2026-04-29 00:53 | 36.41406 | -6.82398 | 31527 ft | 428 kts | 223° |
| 2026-04-29 00:53 | 36.39122 | -6.84783 | 31845 ft | 430 kts | 224° |
| 2026-04-29 00:53 | 36.36819 | -6.87172 | 32055 ft | 433 kts | 224° |
| 2026-04-29 00:53 | 36.34499 | -6.89568 | 32384 ft | 434 kts | 224° |
| 2026-04-29 00:54 | 36.32184 | -6.91948 | 32840 ft | 431 kts | 224° |
| 2026-04-29 00:54 | 36.30662 | -6.93510 | 33129 ft | 429 kts | 224° |
| 2026-04-29 00:54 | 36.28351 | -6.95877 | 33394 ft | 431 kts | 225° |
| 2026-04-29 00:54 | 36.26029 | -6.98256 | 33583 ft | 435 kts | 225° |
| 2026-04-29 00:55 | 36.23694 | -7.00647 | 33926 ft | 434 kts | 225° |
| 2026-04-29 00:55 | 36.21372 | -7.03019 | 34305 ft | 432 kts | 225° |
| 2026-04-29 00:55 | 36.19062 | -7.05378 | 34663 ft | 429 kts | 224° |
| 2026-04-29 00:55 | 36.16759 | -7.07729 | 34940 ft | 429 kts | 224° |
| 2026-04-29 00:56 | 36.14456 | -7.10081 | 35191 ft | 430 kts | 224° |
| 2026-04-29 00:56 | 36.12153 | -7.12429 | 35506 ft | 429 kts | 224° |
| 2026-04-29 00:56 | 36.09857 | -7.14767 | 35854 ft | 427 kts | 224° |
| 2026-04-29 00:56 | 36.07572 | -7.17093 | 36169 ft | 426 kts | 224° |
| 2026-04-29 00:57 | 36.05286 | -7.19418 | 36447 ft | 425 kts | 224° |
| 2026-04-29 00:57 | 36.03005 | -7.21736 | 36702 ft | 425 kts | 224° |
| 2026-04-29 00:57 | 36.00723 | -7.24053 | 36918 ft | 425 kts | 224° |
| 2026-04-29 00:58 | 35.96116 | -7.28733 | 36926 ft | 430 kts | 224° |
| 2026-04-29 00:58 | 35.91506 | -7.33402 | 36906 ft | 425 kts | 224° |
| 2026-04-29 00:59 | 35.86991 | -7.37969 | 36925 ft | 422 kts | 224° |
| 2026-04-29 00:59 | 35.82456 | -7.42548 | 36924 ft | 422 kts | 224° |
| 2026-04-29 01:00 | 35.77896 | -7.47104 | 36923 ft | 422 kts | 224° |
| 2026-04-29 01:00 | 35.73330 | -7.51652 | 36926 ft | 422 kts | 224° |
| 2026-04-29 01:01 | 35.68759 | -7.56201 | 36933 ft | 423 kts | 224° |
| 2026-04-29 01:01 | 35.64183 | -7.60754 | 36922 ft | 424 kts | 224° |
| 2026-04-29 01:02 | 35.59599 | -7.65309 | 36926 ft | 424 kts | 224° |
| 2026-04-29 01:02 | 35.55013 | -7.69859 | 36928 ft | 424 kts | 224° |
| 2026-04-29 01:03 | 35.50416 | -7.74410 | 36907 ft | 425 kts | 224° |
| 2026-04-29 01:03 | 35.45816 | -7.78960 | 36921 ft | 425 kts | 224° |
| 2026-04-29 01:04 | 35.41207 | -7.83511 | 36928 ft | 425 kts | 224° |
| 2026-04-29 01:04 | 35.36611 | -7.88090 | 36930 ft | 426 kts | 224° |
| 2026-04-29 01:05 | 35.32019 | -7.92685 | 36930 ft | 426 kts | 224° |
| 2026-04-29 01:05 | 35.27430 | -7.97272 | 36932 ft | 426 kts | 224° |
| 2026-04-29 01:06 | 35.22865 | -8.01821 | 36909 ft | 426 kts | 224° |
| 2026-04-29 01:06 | 35.18270 | -8.06393 | 36930 ft | 426 kts | 224° |
| 2026-04-29 01:07 | 35.13642 | -8.10989 | 36936 ft | 426 kts | 224° |
| 2026-04-29 01:07 | 35.09071 | -8.15523 | 36936 ft | 426 kts | 224° |
| 2026-04-29 01:08 | 35.04438 | -8.20111 | 36935 ft | 426 kts | 224° |
| 2026-04-29 01:08 | 34.99836 | -8.24659 | 36937 ft | 426 kts | 224° |
| 2026-04-29 01:09 | 34.95263 | -8.29173 | 36922 ft | 426 kts | 224° |
| 2026-04-29 01:09 | 34.90660 | -8.33713 | 36929 ft | 425 kts | 224° |
| 2026-04-29 01:10 | 34.86062 | -8.38241 | 36933 ft | 425 kts | 224° |
| 2026-04-29 01:10 | 34.81465 | -8.42759 | 36942 ft | 424 kts | 224° |
| 2026-04-29 01:11 | 34.76872 | -8.47269 | 36937 ft | 424 kts | 224° |
| 2026-04-29 01:11 | 34.72281 | -8.51768 | 36947 ft | 423 kts | 224° |
| 2026-04-29 01:12 | 34.67692 | -8.56260 | 36932 ft | 424 kts | 224° |
| 2026-04-29 01:12 | 34.63102 | -8.60748 | 36947 ft | 424 kts | 224° |
| 2026-04-29 01:13 | 34.58506 | -8.65231 | 36942 ft | 424 kts | 224° |
| 2026-04-29 01:13 | 34.53910 | -8.69709 | 36942 ft | 424 kts | 224° |
| 2026-04-29 01:14 | 34.49313 | -8.74183 | 36946 ft | 424 kts | 224° |
| 2026-04-29 01:14 | 34.44716 | -8.78651 | 36946 ft | 423 kts | 224° |
| 2026-04-29 01:15 | 34.40111 | -8.83092 | 36933 ft | 424 kts | 224° |
| 2026-04-29 01:15 | 34.35501 | -8.87518 | 36943 ft | 422 kts | 224° |
| 2026-04-29 01:16 | 34.30901 | -8.91931 | 36944 ft | 422 kts | 224° |
| 2026-04-29 01:16 | 34.26305 | -8.96336 | 36948 ft | 422 kts | 224° |
| 2026-04-29 01:17 | 34.21703 | -9.00741 | 36953 ft | 422 kts | 224° |
| 2026-04-29 01:17 | 34.17131 | -9.05112 | 36950 ft | 422 kts | 224° |
| 2026-04-29 01:18 | 34.12521 | -9.09511 | 36925 ft | 422 kts | 223° |
| 2026-04-29 01:18 | 34.05625 | -9.16085 | 36952 ft | 421 kts | 223° |
| 2026-04-29 01:19 | 34.01028 | -9.20459 | 36951 ft | 421 kts | 223° |
| 2026-04-29 01:19 | 33.96431 | -9.24827 | 36955 ft | 421 kts | 223° |
| 2026-04-29 01:20 | 33.91827 | -9.29193 | 36956 ft | 421 kts | 223° |
| 2026-04-29 01:20 | 33.87223 | -9.33553 | 36957 ft | 421 kts | 223° |
| 2026-04-29 01:21 | 33.82624 | -9.37904 | 36952 ft | 420 kts | 223° |
| 2026-04-29 01:21 | 33.78025 | -9.42247 | 36959 ft | 420 kts | 223° |
| 2026-04-29 01:22 | 33.73428 | -9.46585 | 36940 ft | 420 kts | 223° |
| 2026-04-29 01:22 | 33.68829 | -9.50916 | 36954 ft | 420 kts | 223° |
| 2026-04-29 01:23 | 33.64231 | -9.55242 | 36962 ft | 420 kts | 223° |
| 2026-04-29 01:23 | 33.59633 | -9.59561 | 36960 ft | 419 kts | 223° |
| 2026-04-29 01:24 | 33.55039 | -9.63870 | 36952 ft | 419 kts | 223° |
| 2026-04-29 01:24 | 33.50447 | -9.68172 | 36966 ft | 419 kts | 223° |
| 2026-04-29 01:25 | 33.45854 | -9.72470 | 36964 ft | 419 kts | 223° |
| 2026-04-29 01:25 | 33.41254 | -9.76767 | 36964 ft | 419 kts | 223° |
| 2026-04-29 01:26 | 33.36657 | -9.81056 | 36962 ft | 419 kts | 223° |
| 2026-04-29 01:26 | 33.32059 | -9.85339 | 36965 ft | 419 kts | 223° |
| 2026-04-29 01:27 | 33.27463 | -9.89615 | 36954 ft | 418 kts | 223° |
| 2026-04-29 01:27 | 33.22874 | -9.93878 | 36968 ft | 418 kts | 223° |
| 2026-04-29 01:28 | 33.18284 | -9.98137 | 36969 ft | 418 kts | 223° |
| 2026-04-29 01:28 | 33.13697 | -10.02386 | 36970 ft | 417 kts | 223° |
| 2026-04-29 01:29 | 33.09109 | -10.06632 | 36973 ft | 418 kts | 222° |
| 2026-04-29 01:29 | 33.04510 | -10.10884 | 36972 ft | 418 kts | 222° |
| 2026-04-29 01:30 | 32.99904 | -10.15132 | 36973 ft | 418 kts | 222° |
| 2026-04-29 01:30 | 32.95294 | -10.19370 | 36978 ft | 419 kts | 222° |
| 2026-04-29 01:31 | 32.90714 | -10.23577 | 36969 ft | 418 kts | 222° |
| 2026-04-29 01:31 | 32.86106 | -10.27805 | 36986 ft | 419 kts | 222° |
| 2026-04-29 01:32 | 32.81492 | -10.32033 | 36977 ft | 419 kts | 222° |
| 2026-04-29 01:32 | 32.76878 | -10.36256 | 36976 ft | 419 kts | 222° |
| 2026-04-29 01:33 | 32.72258 | -10.40478 | 36962 ft | 419 kts | 222° |
| 2026-04-29 01:33 | 32.67645 | -10.44689 | 36975 ft | 418 kts | 222° |
| 2026-04-29 01:34 | 32.63036 | -10.48891 | 36976 ft | 418 kts | 222° |
| 2026-04-29 01:34 | 32.58425 | -10.53088 | 36972 ft | 418 kts | 222° |
| 2026-04-29 01:35 | 32.53813 | -10.57281 | 36981 ft | 418 kts | 222° |
| 2026-04-29 01:35 | 32.49201 | -10.61469 | 36976 ft | 418 kts | 222° |
| 2026-04-29 01:36 | 32.44586 | -10.65653 | 36981 ft | 418 kts | 222° |
| 2026-04-29 01:36 | 32.39975 | -10.69828 | 36977 ft | 417 kts | 222° |
| 2026-04-29 01:37 | 32.35394 | -10.73971 | 36986 ft | 417 kts | 222° |
| 2026-04-29 01:37 | 32.30780 | -10.78137 | 36987 ft | 417 kts | 222° |
| 2026-04-29 01:38 | 32.26164 | -10.82302 | 36982 ft | 417 kts | 222° |
| 2026-04-29 01:38 | 32.21544 | -10.86462 | 36985 ft | 418 kts | 222° |
| 2026-04-29 01:39 | 32.16916 | -10.90627 | 36985 ft | 418 kts | 221° |
| 2026-04-29 01:39 | 32.12283 | -10.94789 | 36962 ft | 419 kts | 221° |
| 2026-04-29 01:40 | 32.07650 | -10.98946 | 36982 ft | 418 kts | 221° |
| 2026-04-29 01:40 | 32.03015 | -11.03100 | 36990 ft | 419 kts | 221° |
| 2026-04-29 01:41 | 31.98383 | -11.07245 | 36984 ft | 418 kts | 221° |
| 2026-04-29 01:41 | 31.93745 | -11.11391 | 36988 ft | 418 kts | 221° |
| 2026-04-29 01:42 | 31.89108 | -11.15532 | 36985 ft | 419 kts | 221° |
| 2026-04-29 01:42 | 31.85247 | -11.18973 | 36986 ft | 419 kts | 221° |
| 2026-04-29 01:43 | 31.80598 | -11.23114 | 36981 ft | 419 kts | 221° |
| 2026-04-29 01:43 | 31.75184 | -11.27930 | 36997 ft | 420 kts | 221° |
| 2026-04-29 01:44 | 31.70534 | -11.32071 | 36987 ft | 419 kts | 221° |
| 2026-04-29 01:44 | 31.66645 | -11.35537 | 36981 ft | 419 kts | 221° |
| 2026-04-29 01:45 | 31.62004 | -11.39672 | 36991 ft | 419 kts | 221° |
| 2026-04-29 01:45 | 31.57391 | -11.43774 | 36991 ft | 418 kts | 221° |
| 2026-04-29 01:46 | 31.52751 | -11.47893 | 36988 ft | 418 kts | 220° |
| 2026-04-29 01:46 | 31.48113 | -11.52008 | 36991 ft | 418 kts | 220° |
| 2026-04-29 01:47 | 31.43473 | -11.56120 | 36993 ft | 418 kts | 220° |
| 2026-04-29 01:47 | 31.38827 | -11.60229 | 36994 ft | 418 kts | 220° |
| 2026-04-29 01:48 | 31.34183 | -11.64333 | 36993 ft | 419 kts | 220° |
| 2026-04-29 01:48 | 31.29535 | -11.68433 | 36991 ft | 418 kts | 220° |
| 2026-04-29 01:49 | 31.24887 | -11.72531 | 36973 ft | 418 kts | 220° |
| 2026-04-29 01:49 | 31.20241 | -11.76621 | 36989 ft | 418 kts | 220° |
| 2026-04-29 01:50 | 31.15597 | -11.80703 | 36996 ft | 418 kts | 220° |
| 2026-04-29 01:50 | 31.10949 | -11.84783 | 36996 ft | 418 kts | 220° |
| 2026-04-29 01:51 | 31.06297 | -11.88863 | 36996 ft | 419 kts | 220° |
| 2026-04-29 01:51 | 31.01634 | -11.92947 | 37003 ft | 419 kts | 220° |
| 2026-04-29 01:52 | 30.96972 | -11.97026 | 36999 ft | 419 kts | 220° |
| 2026-04-29 01:52 | 30.92337 | -12.01075 | 36992 ft | 419 kts | 220° |
| 2026-04-29 01:53 | 30.87674 | -12.05142 | 36994 ft | 419 kts | 220° |
| 2026-04-29 01:53 | 30.83012 | -12.09204 | 37002 ft | 418 kts | 220° |
| 2026-04-29 01:54 | 30.78354 | -12.13261 | 36999 ft | 418 kts | 220° |
| 2026-04-29 01:54 | 30.73689 | -12.17315 | 37001 ft | 419 kts | 220° |
| 2026-04-29 01:55 | 30.69025 | -12.21364 | 37006 ft | 418 kts | 220° |
| 2026-04-29 01:55 | 30.64360 | -12.25410 | 36991 ft | 418 kts | 219° |
| 2026-04-29 01:56 | 30.59701 | -12.29447 | 36999 ft | 417 kts | 219° |
| 2026-04-29 01:56 | 30.55052 | -12.33471 | 37002 ft | 417 kts | 219° |
| 2026-04-29 01:57 | 30.50401 | -12.37489 | 37008 ft | 417 kts | 219° |
| 2026-04-29 01:57 | 30.45746 | -12.41493 | 37007 ft | 416 kts | 219° |
| 2026-04-29 01:58 | 30.41091 | -12.45489 | 37008 ft | 416 kts | 219° |
| 2026-04-29 01:58 | 30.36436 | -12.49480 | 37006 ft | 416 kts | 219° |
| 2026-04-29 01:59 | 30.31817 | -12.53438 | 37006 ft | 416 kts | 219° |
| 2026-04-29 01:59 | 30.27167 | -12.57419 | 37006 ft | 416 kts | 219° |
| 2026-04-29 02:00 | 30.22509 | -12.61403 | 37013 ft | 416 kts | 219° |
| 2026-04-29 02:00 | 30.17850 | -12.65381 | 37009 ft | 416 kts | 219° |
| 2026-04-29 02:01 | 30.13188 | -12.69358 | 37014 ft | 417 kts | 219° |
| 2026-04-29 02:01 | 30.08404 | -12.73155 | 37009 ft | 419 kts | 213° |
| 2026-04-29 02:02 | 30.03291 | -12.76408 | 37005 ft | 420 kts | 211° |
| 2026-04-29 02:02 | 29.98148 | -12.79609 | 37017 ft | 420 kts | 211° |
| 2026-04-29 02:03 | 29.95585 | -12.81222 | 36912 ft | 421 kts | 211° |
| 2026-04-29 02:03 | 29.93016 | -12.82850 | 36615 ft | 418 kts | 211° |
| 2026-04-29 02:03 | 29.90488 | -12.84456 | 36232 ft | 413 kts | 211° |
| 2026-04-29 02:03 | 29.87987 | -12.86048 | 35884 ft | 408 kts | 211° |
| 2026-04-29 02:04 | 29.85511 | -12.87626 | 35486 ft | 405 kts | 211° |
| 2026-04-29 02:04 | 29.83060 | -12.89190 | 35115 ft | 402 kts | 211° |
| 2026-04-29 02:04 | 29.80619 | -12.90745 | 34730 ft | 399 kts | 211° |
| 2026-04-29 02:04 | 29.78196 | -12.92287 | 34364 ft | 396 kts | 211° |
| 2026-04-29 02:05 | 29.75790 | -12.93818 | 33963 ft | 394 kts | 210° |
| 2026-04-29 02:05 | 29.73398 | -12.95339 | 33525 ft | 391 kts | 211° |
| 2026-04-29 02:05 | 29.71028 | -12.96846 | 33138 ft | 388 kts | 211° |
| 2026-04-29 02:05 | 29.68669 | -12.98345 | 32757 ft | 386 kts | 211° |
| 2026-04-29 02:06 | 29.66330 | -12.99830 | 32392 ft | 383 kts | 211° |
| 2026-04-29 02:06 | 29.64008 | -13.01302 | 32028 ft | 380 kts | 211° |
| 2026-04-29 02:06 | 29.61733 | -13.02745 | 31672 ft | 378 kts | 211° |
| 2026-04-29 02:06 | 29.59440 | -13.04198 | 31315 ft | 375 kts | 211° |
| 2026-04-29 02:07 | 29.57158 | -13.05643 | 30960 ft | 373 kts | 211° |
| 2026-04-29 02:07 | 29.54891 | -13.07080 | 30606 ft | 371 kts | 211° |
| 2026-04-29 02:07 | 29.52639 | -13.08506 | 30262 ft | 369 kts | 211° |
| 2026-04-29 02:07 | 29.50392 | -13.09926 | 29882 ft | 368 kts | 211° |
| 2026-04-29 02:08 | 29.48159 | -13.11338 | 29481 ft | 366 kts | 211° |
| 2026-04-29 02:08 | 29.45937 | -13.12741 | 29078 ft | 363 kts | 211° |
| 2026-04-29 02:08 | 29.43733 | -13.14133 | 28725 ft | 360 kts | 211° |
| 2026-04-29 02:08 | 29.41548 | -13.15513 | 28356 ft | 358 kts | 211° |
| 2026-04-29 02:09 | 29.39376 | -13.16883 | 27994 ft | 355 kts | 211° |
| 2026-04-29 02:09 | 29.37217 | -13.18243 | 27633 ft | 353 kts | 211° |
| 2026-04-29 02:09 | 29.35054 | -13.19561 | 27279 ft | 351 kts | 208° |
| 2026-04-29 02:09 | 29.32862 | -13.20777 | 26929 ft | 350 kts | 207° |
| 2026-04-29 02:10 | 29.30665 | -13.21962 | 26582 ft | 348 kts | 207° |
| 2026-04-29 02:10 | 29.28483 | -13.23140 | 26233 ft | 346 kts | 207° |
| 2026-04-29 02:10 | 29.26314 | -13.24320 | 25887 ft | 344 kts | 207° |
| 2026-04-29 02:10 | 29.24158 | -13.25500 | 25543 ft | 343 kts | 207° |
| 2026-04-29 02:11 | 29.22010 | -13.26678 | 25202 ft | 342 kts | 207° |
| 2026-04-29 02:11 | 29.19868 | -13.27853 | 24807 ft | 343 kts | 207° |
| 2026-04-29 02:11 | 29.17706 | -13.29038 | 24397 ft | 346 kts | 207° |
| 2026-04-29 02:11 | 29.15518 | -13.30236 | 23938 ft | 351 kts | 207° |
| 2026-04-29 02:12 | 29.13312 | -13.31443 | 23493 ft | 352 kts | 207° |
| 2026-04-29 02:12 | 29.11099 | -13.32654 | 22987 ft | 353 kts | 207° |
| 2026-04-29 02:12 | 29.08886 | -13.33864 | 22533 ft | 352 kts | 207° |
| 2026-04-29 02:12 | 29.06676 | -13.35072 | 22090 ft | 352 kts | 207° |
| 2026-04-29 02:13 | 29.04471 | -13.36276 | 21647 ft | 351 kts | 207° |
| 2026-04-29 02:13 | 29.02301 | -13.37461 | 21216 ft | 350 kts | 207° |
| 2026-04-29 02:13 | 29.00104 | -13.38661 | 20783 ft | 350 kts | 207° |
| 2026-04-29 02:13 | 28.97910 | -13.39858 | 20356 ft | 349 kts | 207° |
| 2026-04-29 02:14 | 28.95718 | -13.41053 | 19923 ft | 349 kts | 207° |
| 2026-04-29 02:14 | 28.93533 | -13.42245 | 19488 ft | 348 kts | 207° |
| 2026-04-29 02:14 | 28.91349 | -13.43435 | 19066 ft | 348 kts | 207° |
| 2026-04-29 02:14 | 28.89166 | -13.44625 | 18633 ft | 348 kts | 207° |
| 2026-04-29 02:15 | 28.86983 | -13.45814 | 18172 ft | 348 kts | 207° |
| 2026-04-29 02:15 | 28.84800 | -13.47002 | 17685 ft | 347 kts | 207° |
| 2026-04-29 02:15 | 28.82624 | -13.48185 | 17257 ft | 346 kts | 207° |
| 2026-04-29 02:15 | 28.80461 | -13.49360 | 16823 ft | 344 kts | 207° |
| 2026-04-29 02:16 | 28.78308 | -13.50529 | 16394 ft | 342 kts | 207° |
| 2026-04-29 02:16 | 28.76168 | -13.51691 | 15972 ft | 340 kts | 207° |
| 2026-04-29 02:16 | 28.74035 | -13.52850 | 15558 ft | 339 kts | 207° |
| 2026-04-29 02:16 | 28.71914 | -13.54002 | 15148 ft | 337 kts | 207° |
| 2026-04-29 02:17 | 28.69801 | -13.55149 | 14726 ft | 336 kts | 207° |
| 2026-04-29 02:17 | 28.67695 | -13.56291 | 14317 ft | 335 kts | 207° |
| 2026-04-29 02:17 | 28.65593 | -13.57430 | 13891 ft | 335 kts | 207° |
| 2026-04-29 02:17 | 28.63493 | -13.58568 | 13439 ft | 334 kts | 207° |
| 2026-04-29 02:18 | 28.61402 | -13.59699 | 12997 ft | 332 kts | 207° |
| 2026-04-29 02:18 | 28.59322 | -13.60825 | 12572 ft | 330 kts | 207° |
| 2026-04-29 02:18 | 28.57255 | -13.61944 | 12158 ft | 328 kts | 207° |
| 2026-04-29 02:18 | 28.55199 | -13.63055 | 11743 ft | 326 kts | 207° |
| 2026-04-29 02:19 | 28.53122 | -13.64067 | 11329 ft | 325 kts | 196° |
| 2026-04-29 02:19 | 28.50881 | -13.64400 | 10961 ft | 325 kts | 185° |
| 2026-04-29 02:19 | 28.48631 | -13.64578 | 10551 ft | 324 kts | 185° |
| 2026-04-29 02:19 | 28.46387 | -13.64757 | 10148 ft | 322 kts | 185° |
| 2026-04-29 02:20 | 28.44167 | -13.64946 | 9918 ft | 315 kts | 186° |
| 2026-04-29 02:20 | 28.42035 | -13.65135 | 9917 ft | 300 kts | 186° |
| 2026-04-29 02:20 | 28.39996 | -13.65323 | 9898 ft | 288 kts | 186° |
| 2026-04-29 02:20 | 28.37992 | -13.65511 | 9271 ft | 297 kts | 186° |
| 2026-04-29 02:21 | 28.35904 | -13.65709 | 8479 ft | 305 kts | 186° |
| 2026-04-29 02:21 | 28.33828 | -13.65964 | 7926 ft | 301 kts | 195° |
| 2026-04-29 02:21 | 28.31973 | -13.66920 | 7567 ft | 288 kts | 217° |
| 2026-04-29 02:21 | 28.30479 | -13.68374 | 7223 ft | 279 kts | 227° |
| 2026-04-29 02:22 | 28.29163 | -13.69971 | 6879 ft | 274 kts | 230° |
| 2026-04-29 02:22 | 28.27910 | -13.71567 | 6545 ft | 267 kts | 231° |
| 2026-04-29 02:22 | 28.26774 | -13.73204 | 6196 ft | 262 kts | 236° |
| 2026-04-29 02:22 | 28.25771 | -13.74932 | 5869 ft | 263 kts | 242° |
| 2026-04-29 02:23 | 28.24910 | -13.76763 | 5522 ft | 264 kts | 248° |
| 2026-04-29 02:23 | 28.24209 | -13.78684 | 5193 ft | 262 kts | 253° |
| 2026-04-29 02:23 | 28.23677 | -13.80637 | 4855 ft | 256 kts | 257° |
| 2026-04-29 02:23 | 28.23303 | -13.82586 | 4525 ft | 250 kts | 263° |
| 2026-04-29 02:24 | 28.23152 | -13.84518 | 4187 ft | 241 kts | 277° |
| 2026-04-29 02:24 | 28.23764 | -13.86185 | 3928 ft | 225 kts | 316° |
| 2026-04-29 02:24 | 28.25076 | -13.86977 | 3669 ft | 212 kts | 352° |
| 2026-04-29 02:25 | 28.27841 | -13.86979 | 3189 ft | 189 kts | 1° |
| 2026-04-29 02:25 | 28.29116 | -13.86921 | 2986 ft | 178 kts | 1° |
| 2026-04-29 02:25 | 28.30341 | -13.86873 | 2758 ft | 174 kts | 1° |
| 2026-04-29 02:25 | 28.31538 | -13.86832 | 2522 ft | 170 kts | 1° |
| 2026-04-29 02:26 | 28.32702 | -13.86794 | 2309 ft | 165 kts | 1° |
| 2026-04-29 02:26 | 28.33830 | -13.86754 | 2071 ft | 157 kts | 0° |
| 2026-04-29 02:26 | 28.34905 | -13.86722 | 1886 ft | 152 kts | 1° |
| 2026-04-29 02:26 | 28.35908 | -13.86688 | 1664 ft | 138 kts | 1° |
| 2026-04-29 02:27 | 28.36841 | -13.86656 | 1512 ft | 135 kts | 1° |
| 2026-04-29 02:27 | 28.37776 | -13.86622 | 1311 ft | 136 kts | 0° |
| 2026-04-29 02:27 | 28.38721 | -13.86593 | 1147 ft | 137 kts | 0° |
| 2026-04-29 02:27 | 28.39685 | -13.86558 | 925 ft | 138 kts | 359° |
| 2026-04-29 02:28 | 28.40648 | -13.86519 | 723 ft | 139 kts | 360° |
| 2026-04-29 02:28 | 28.41594 | -13.86493 | 568 ft | 135 kts | 359° |
| 2026-04-29 02:28 | 28.42542 | -13.86457 | 370 ft | 136 kts | 359° |
| 2026-04-29 02:28 | 28.43499 | -13.86428 | 237 ft | 136 kts | 359° |
| 2026-04-29 02:29 | 28.44432 | -13.86403 | 65 ft | 131 kts | 0° |
| 2026-04-29 02:29 | 28.45249 | -13.86376 | 79 ft | 97 kts | 1° |
| 2026-04-29 02:29 | 28.45770 | -13.86360 | 90 ft | 47 kts | 1° |
| 2026-04-29 02:29 | 28.46034 | -13.86411 | 92 ft | 30 kts | 337° |
| 2026-04-29 02:30 | 28.46144 | -13.86502 | 97 ft | 17 kts | 277° |
| 2026-04-29 02:30 | 28.46067 | -13.86544 | 97 ft | 14 kts | 182° |
| 2026-04-29 02:30 | 28.45958 | -13.86547 | 98 ft | 17 kts | 181° |
| 2026-04-29 02:30 | 28.45827 | -13.86552 | 97 ft | 21 kts | 181° |
| 2026-04-29 02:31 | 28.45671 | -13.86557 | 95 ft | 24 kts | 181° |
| 2026-04-29 02:31 | 28.45495 | -13.86562 | 95 ft | 26 kts | 181° |
| 2026-04-29 02:31 | 28.45326 | -13.86568 | 95 ft | 23 kts | 181° |
| 2026-04-29 02:31 | 28.45177 | -13.86572 | 94 ft | 19 kts | 181° |
| 2026-04-29 02:32 | 28.45098 | -13.86612 | 96 ft | 12 kts | 262° |
| 2026-04-29 02:32 | 28.45098 | -13.86676 | 97 ft | 6 kts | 271° |
| 2026-04-29 02:32 | 28.45097 | -13.86714 | 97 ft | 5 kts | 257° |
| 2026-04-29 02:32 | 28.45076 | -13.86740 | 100 ft | 5 kts | 205° |
| 2026-04-29 02:33 | 28.45035 | -13.86745 | 98 ft | 8 kts | 182° |
| 2026-04-29 02:33 | 28.45000 | -13.86760 | 98 ft | 4 kts | 244° |
| 2026-04-29 02:33 | 28.44997 | -13.86794 | 98 ft | 4 kts | 271° |
| 2026-04-29 02:33 | 28.44998 | -13.86829 | 98 ft | 4 kts | 272° |
| 2026-04-29 02:34 | 28.44998 | -13.86842 | 98 ft | 0 kts | 272° |